sensor_id;sensor_type;location;lat;lon;timestamp;temperature;humidity
10530;DHT22;5313;48.834;9.228;2023-04-01T00:01:29;9.30;99.90
10530;DHT22;5313;48.834;9.228;2023-04-01T00:03:55;9.30;99.90
10530;DHT22;5313;48.834;9.228;2023-04-01T00:06:21;9.30;99.90
10530;DHT22;5313;48.834;9.228;2023-04-01T00:08:47;9.20;99.90
10530;DHT22;5313;48.834;9.228;2023-04-01T00:11:13;8.20;99.90
10530;DHT22;5313;48.834;9.228;2023-04-01T00:13:40;9.30;99.90
10530;DHT22;5313;48.834;9.228;2023-04-01T00:16:07;9.30;99.90
10530;DHT22;5313;48.834;9.228;2023-04-01T00:18:32;9.30;99.90
10530;DHT22;5313;48.834;9.228;2023-04-01T00:20:58;9.30;99.90
10530;DHT22;5313;48.834;9.228;2023-04-01T00:23:23;9.30;99.90
10530;DHT22;5313;48.834;9.228;2023-04-01T00:25:49;9.40;99.90
10530;DHT22;5313;48.834;9.228;2023-04-01T00:28:16;9.40;99.90
10530;DHT22;5313;48.834;9.228;2023-04-01T00:30:42;9.40;99.90
10530;DHT22;5313;48.834;9.228;2023-04-01T00:33:07;9.40;99.90
10530;DHT22;5313;48.834;9.228;2023-04-01T00:35:33;9.40;99.90
10530;DHT22;5313;48.834;9.228;2023-04-01T00:37:59;9.30;99.90
10530;DHT22;5313;48.834;9.228;2023-04-01T00:42:55;9.30;99.90
10530;DHT22;5313;48.834;9.228;2023-04-01T00:47:50;9.30;99.90
10530;DHT22;5313;48.834;9.228;2023-04-01T00:50:15;9.30;99.90
10530;DHT22;5313;48.834;9.228;2023-04-01T00:52:41;9.40;99.90
10530;DHT22;5313;48.834;9.228;2023-04-01T00:55:09;9.40;99.90
10530;DHT22;5313;48.834;9.228;2023-04-01T00:57:37;9.40;99.90
10530;DHT22;5313;48.834;9.228;2023-04-01T01:00:06;9.50;99.90
10530;DHT22;5313;48.834;9.228;2023-04-01T01:02:35;9.50;99.90
10530;DHT22;5313;48.834;9.228;2023-04-01T01:05:00;9.50;99.90
10530;DHT22;5313;48.834;9.228;2023-04-01T01:07:44;9.50;99.90
10530;DHT22;5313;48.834;9.228;2023-04-01T01:10:34;9.50;99.90
10530;DHT22;5313;48.834;9.228;2023-04-01T01:13:14;9.50;99.90
10530;DHT22;5313;48.834;9.228;2023-04-01T01:18:58;9.40;99.90
10530;DHT22;5313;48.834;9.228;2023-04-01T01:21:42;9.30;99.90
10530;DHT22;5313;48.834;9.228;2023-04-01T01:27:03;9.30;99.90
10530;DHT22;5313;48.834;9.228;2023-04-01T01:29:59;9.30;99.90
10530;DHT22;5313;48.834;9.228;2023-04-01T01:32:53;9.30;99.90
10530;DHT22;5313;48.834;9.228;2023-04-01T01:38:04;9.20;99.90
10530;DHT22;5313;48.834;9.228;2023-04-01T01:40:32;9.20;99.90
10530;DHT22;5313;48.834;9.228;2023-04-01T01:43:04;9.20;99.90
10530;DHT22;5313;48.834;9.228;2023-04-01T01:45:30;9.20;99.90
10530;DHT22;5313;48.834;9.228;2023-04-01T01:47:57;9.30;99.90
10530;DHT22;5313;48.834;9.228;2023-04-01T01:50:24;9.40;99.90
10530;DHT22;5313;48.834;9.228;2023-04-01T01:52:51;9.30;99.90
10530;DHT22;5313;48.834;9.228;2023-04-01T01:55:33;9.20;99.90
10530;DHT22;5313;48.834;9.228;2023-04-01T01:58:06;9.10;99.90
10530;DHT22;5313;48.834;9.228;2023-04-01T02:00:33;9.00;99.90
10530;DHT22;5313;48.834;9.228;2023-04-01T02:03:00;8.90;99.90
10530;DHT22;5313;48.834;9.228;2023-04-01T02:05:27;8.90;99.90
10530;DHT22;5313;48.834;9.228;2023-04-01T02:10:36;8.90;99.90
10530;DHT22;5313;48.834;9.228;2023-04-01T02:13:10;8.80;99.90
10530;DHT22;5313;48.834;9.228;2023-04-01T02:15:41;8.80;99.90
10530;DHT22;5313;48.834;9.228;2023-04-01T02:18:08;8.80;99.90
10530;DHT22;5313;48.834;9.228;2023-04-01T02:20:34;8.80;99.90
10530;DHT22;5313;48.834;9.228;2023-04-01T02:23:02;8.80;99.90
10530;DHT22;5313;48.834;9.228;2023-04-01T02:25:30;8.80;99.90
10530;DHT22;5313;48.834;9.228;2023-04-01T02:27:59;8.80;99.90
10530;DHT22;5313;48.834;9.228;2023-04-01T02:30:27;8.80;99.90
10530;DHT22;5313;48.834;9.228;2023-04-01T02:32:55;8.80;99.90
10530;DHT22;5313;48.834;9.228;2023-04-01T02:35:21;8.70;99.90
10530;DHT22;5313;48.834;9.228;2023-04-01T02:37:49;8.70;99.90
10530;DHT22;5313;48.834;9.228;2023-04-01T02:40:16;8.70;99.90
10530;DHT22;5313;48.834;9.228;2023-04-01T02:42:42;8.70;99.90
10530;DHT22;5313;48.834;9.228;2023-04-01T02:45:08;8.70;99.90
10530;DHT22;5313;48.834;9.228;2023-04-01T02:47:34;8.70;99.90
10530;DHT22;5313;48.834;9.228;2023-04-01T02:50:00;8.70;99.90
10530;DHT22;5313;48.834;9.228;2023-04-01T02:52:26;8.70;99.90
10530;DHT22;5313;48.834;9.228;2023-04-01T02:54:52;8.70;99.90
10530;DHT22;5313;48.834;9.228;2023-04-01T02:57:18;8.70;99.90
10530;DHT22;5313;48.834;9.228;2023-04-01T02:59:44;8.70;99.90
10530;DHT22;5313;48.834;9.228;2023-04-01T03:02:09;8.80;99.90
10530;DHT22;5313;48.834;9.228;2023-04-01T03:04:35;8.70;99.90
10530;DHT22;5313;48.834;9.228;2023-04-01T03:07:00;8.70;99.90
10530;DHT22;5313;48.834;9.228;2023-04-01T03:09:26;8.70;99.90
10530;DHT22;5313;48.834;9.228;2023-04-01T03:11:52;8.70;99.90
10530;DHT22;5313;48.834;9.228;2023-04-01T03:14:17;8.70;99.90
10530;DHT22;5313;48.834;9.228;2023-04-01T03:16:43;7.80;99.90
10530;DHT22;5313;48.834;9.228;2023-04-01T03:19:08;8.80;99.90
10530;DHT22;5313;48.834;9.228;2023-04-01T03:21:34;8.70;99.90
10530;DHT22;5313;48.834;9.228;2023-04-01T03:23:59;8.90;99.90
10530;DHT22;5313;48.834;9.228;2023-04-01T03:26:25;8.70;99.90
10530;DHT22;5313;48.834;9.228;2023-04-01T03:28:52;8.70;99.90
10530;DHT22;5313;48.834;9.228;2023-04-01T03:31:18;8.70;99.90
10530;DHT22;5313;48.834;9.228;2023-04-01T03:33:44;8.70;99.90
10530;DHT22;5313;48.834;9.228;2023-04-01T03:36:09;8.60;99.90
10530;DHT22;5313;48.834;9.228;2023-04-01T03:38:36;8.60;99.90
10530;DHT22;5313;48.834;9.228;2023-04-01T03:41:03;8.60;99.90
10530;DHT22;5313;48.834;9.228;2023-04-01T03:43:28;8.60;99.90
10530;DHT22;5313;48.834;9.228;2023-04-01T03:45:54;8.60;99.90
10530;DHT22;5313;48.834;9.228;2023-04-01T03:48:20;8.60;99.90
10530;DHT22;5313;48.834;9.228;2023-04-01T03:50:46;8.60;99.90
10530;DHT22;5313;48.834;9.228;2023-04-01T03:53:12;8.60;99.90
10530;DHT22;5313;48.834;9.228;2023-04-01T03:55:38;8.60;99.90
10530;DHT22;5313;48.834;9.228;2023-04-01T03:58:05;8.50;99.90
10530;DHT22;5313;48.834;9.228;2023-04-01T04:00:31;8.50;99.90
10530;DHT22;5313;48.834;9.228;2023-04-01T04:02:57;8.50;99.90
10530;DHT22;5313;48.834;9.228;2023-04-01T04:05:24;8.50;99.90
10530;DHT22;5313;48.834;9.228;2023-04-01T04:07:50;8.50;99.90
10530;DHT22;5313;48.834;9.228;2023-04-01T04:10:16;8.60;99.90
10530;DHT22;5313;48.834;9.228;2023-04-01T04:12:42;8.60;99.90
10530;DHT22;5313;48.834;9.228;2023-04-01T04:15:08;8.60;99.90
10530;DHT22;5313;48.834;9.228;2023-04-01T04:17:34;8.60;99.90
10530;DHT22;5313;48.834;9.228;2023-04-01T04:19:59;8.60;99.90
10530;DHT22;5313;48.834;9.228;2023-04-01T04:22:25;8.60;99.90
10530;DHT22;5313;48.834;9.228;2023-04-01T04:24:50;8.60;99.90
10530;DHT22;5313;48.834;9.228;2023-04-01T04:27:16;8.60;99.90
10530;DHT22;5313;48.834;9.228;2023-04-01T04:29:42;8.60;99.90
10530;DHT22;5313;48.834;9.228;2023-04-01T04:32:08;8.60;99.90
10530;DHT22;5313;48.834;9.228;2023-04-01T04:34:33;8.60;99.90
10530;DHT22;5313;48.834;9.228;2023-04-01T04:36:59;8.50;99.90
10530;DHT22;5313;48.834;9.228;2023-04-01T04:39:24;8.50;99.90
10530;DHT22;5313;48.834;9.228;2023-04-01T04:41:50;8.50;99.90
10530;DHT22;5313;48.834;9.228;2023-04-01T04:44:15;8.40;99.90
10530;DHT22;5313;48.834;9.228;2023-04-01T04:46:41;8.40;99.90
10530;DHT22;5313;48.834;9.228;2023-04-01T04:49:07;8.40;99.90
10530;DHT22;5313;48.834;9.228;2023-04-01T04:51:32;8.40;99.90
10530;DHT22;5313;48.834;9.228;2023-04-01T04:54:03;8.40;99.90
10530;DHT22;5313;48.834;9.228;2023-04-01T04:56:28;8.30;99.90
10530;DHT22;5313;48.834;9.228;2023-04-01T04:58:54;8.30;99.90
10530;DHT22;5313;48.834;9.228;2023-04-01T05:01:20;8.30;99.90
10530;DHT22;5313;48.834;9.228;2023-04-01T05:03:46;8.20;99.90
10530;DHT22;5313;48.834;9.228;2023-04-01T05:06:13;8.20;99.90
10530;DHT22;5313;48.834;9.228;2023-04-01T05:08:39;8.20;99.90
10530;DHT22;5313;48.834;9.228;2023-04-01T05:11:07;8.10;99.90
10530;DHT22;5313;48.834;9.228;2023-04-01T05:13:35;8.10;99.90
10530;DHT22;5313;48.834;9.228;2023-04-01T05:16:01;8.10;99.90
10530;DHT22;5313;48.834;9.228;2023-04-01T05:18:27;8.20;99.90
10530;DHT22;5313;48.834;9.228;2023-04-01T05:20:53;8.20;99.90
10530;DHT22;5313;48.834;9.228;2023-04-01T05:23:20;8.10;99.90
10530;DHT22;5313;48.834;9.228;2023-04-01T05:25:47;8.10;99.90
10530;DHT22;5313;48.834;9.228;2023-04-01T05:28:13;8.10;99.90
10530;DHT22;5313;48.834;9.228;2023-04-01T05:30:42;8.20;99.90
10530;DHT22;5313;48.834;9.228;2023-04-01T05:33:08;8.20;99.90
10530;DHT22;5313;48.834;9.228;2023-04-01T05:35:34;8.20;99.90
10530;DHT22;5313;48.834;9.228;2023-04-01T05:37:59;8.30;99.90
10530;DHT22;5313;48.834;9.228;2023-04-01T05:40:25;8.40;99.90
10530;DHT22;5313;48.834;9.228;2023-04-01T05:42:51;8.40;99.90
10530;DHT22;5313;48.834;9.228;2023-04-01T05:45:16;8.50;99.90
10530;DHT22;5313;48.834;9.228;2023-04-01T05:47:42;8.50;99.90
10530;DHT22;5313;48.834;9.228;2023-04-01T05:50:09;8.50;99.90
10530;DHT22;5313;48.834;9.228;2023-04-01T05:52:36;8.60;99.90
10530;DHT22;5313;48.834;9.228;2023-04-01T05:55:02;8.60;99.90
10530;DHT22;5313;48.834;9.228;2023-04-01T05:57:27;8.60;99.90
10530;DHT22;5313;48.834;9.228;2023-04-01T05:59:53;8.70;99.90
10530;DHT22;5313;48.834;9.228;2023-04-01T06:02:18;8.70;99.90
10530;DHT22;5313;48.834;9.228;2023-04-01T06:04:45;8.80;99.90
10530;DHT22;5313;48.834;9.228;2023-04-01T06:07:12;8.80;99.90
10530;DHT22;5313;48.834;9.228;2023-04-01T06:09:37;8.90;99.90
10530;DHT22;5313;48.834;9.228;2023-04-01T06:12:10;9.00;99.90
10530;DHT22;5313;48.834;9.228;2023-04-01T06:18:02;9.20;99.90
10530;DHT22;5313;48.834;9.228;2023-04-01T06:20:51;9.20;99.90
10530;DHT22;5313;48.834;9.228;2023-04-01T06:26:14;9.30;99.90
10530;DHT22;5313;48.834;9.228;2023-04-01T06:29:35;9.40;99.90
10530;DHT22;5313;48.834;9.228;2023-04-01T06:34:42;9.50;99.90
10530;DHT22;5313;48.834;9.228;2023-04-01T06:43:08;9.70;99.90
10530;DHT22;5313;48.834;9.228;2023-04-01T06:51:34;9.80;99.90
10530;DHT22;5313;48.834;9.228;2023-04-01T06:54:18;9.80;99.90
10530;DHT22;5313;48.834;9.228;2023-04-01T06:56:48;9.80;99.90
10530;DHT22;5313;48.834;9.228;2023-04-01T06:59:19;9.80;99.90
10530;DHT22;5313;48.834;9.228;2023-04-01T07:01:55;9.80;99.90
10530;DHT22;5313;48.834;9.228;2023-04-01T07:04:44;9.90;99.90
10530;DHT22;5313;48.834;9.228;2023-04-01T07:10:09;10.00;99.90
10530;DHT22;5313;48.834;9.228;2023-04-01T07:12:46;10.00;99.90
10530;DHT22;5313;48.834;9.228;2023-04-01T07:15:19;10.00;99.90
10530;DHT22;5313;48.834;9.228;2023-04-01T07:17:48;10.00;99.90
10530;DHT22;5313;48.834;9.228;2023-04-01T07:22:48;9.90;99.90
10530;DHT22;5313;48.834;9.228;2023-04-01T07:25:20;9.90;99.90
10530;DHT22;5313;48.834;9.228;2023-04-01T07:27:46;9.90;99.90
10530;DHT22;5313;48.834;9.228;2023-04-01T07:30:18;9.90;99.90
10530;DHT22;5313;48.834;9.228;2023-04-01T07:32:52;9.90;99.90
10530;DHT22;5313;48.834;9.228;2023-04-01T07:35:35;9.90;99.90
10530;DHT22;5313;48.834;9.228;2023-04-01T07:38:27;9.90;99.90
10530;DHT22;5313;48.834;9.228;2023-04-01T07:40:58;9.90;99.90
10530;DHT22;5313;48.834;9.228;2023-04-01T07:44:19;9.90;99.90
10530;DHT22;5313;48.834;9.228;2023-04-01T07:46:55;9.90;99.90
10530;DHT22;5313;48.834;9.228;2023-04-01T07:49:53;9.90;99.90
10530;DHT22;5313;48.834;9.228;2023-04-01T07:52:43;9.90;99.90
10530;DHT22;5313;48.834;9.228;2023-04-01T07:58:18;10.00;99.90
10530;DHT22;5313;48.834;9.228;2023-04-01T08:01:12;10.00;99.90
10530;DHT22;5313;48.834;9.228;2023-04-01T08:04:16;10.10;99.90
10530;DHT22;5313;48.834;9.228;2023-04-01T08:09:29;10.30;99.90
10530;DHT22;5313;48.834;9.228;2023-04-01T08:23:16;10.30;99.90
10530;DHT22;5313;48.834;9.228;2023-04-01T08:25:48;10.40;99.90
10530;DHT22;5313;48.834;9.228;2023-04-01T08:28:20;10.40;99.90
10530;DHT22;5313;48.834;9.228;2023-04-01T08:33:20;10.30;99.90
10530;DHT22;5313;48.834;9.228;2023-04-01T08:36:02;10.40;99.90
10530;DHT22;5313;48.834;9.228;2023-04-01T08:46:54;10.00;99.90
10530;DHT22;5313;48.834;9.228;2023-04-01T08:55:19;9.50;99.90
10530;DHT22;5313;48.834;9.228;2023-04-01T09:01:32;9.20;99.90
10530;DHT22;5313;48.834;9.228;2023-04-01T09:04:25;9.20;99.90
10530;DHT22;5313;48.834;9.228;2023-04-01T09:07:18;9.20;99.90
10530;DHT22;5313;48.834;9.228;2023-04-01T09:15:12;9.20;99.90
10530;DHT22;5313;48.834;9.228;2023-04-01T09:20:32;9.40;99.90
10530;DHT22;5313;48.834;9.228;2023-04-01T09:26:50;9.60;99.90
10530;DHT22;5313;48.834;9.228;2023-04-01T09:32:16;9.80;99.90
10530;DHT22;5313;48.834;9.228;2023-04-01T09:34:57;10.00;99.90
10530;DHT22;5313;48.834;9.228;2023-04-01T09:37:34;10.10;99.90
10530;DHT22;5313;48.834;9.228;2023-04-01T09:42:43;10.20;99.90
10530;DHT22;5313;48.834;9.228;2023-04-01T09:48:04;10.20;99.90
10530;DHT22;5313;48.834;9.228;2023-04-01T10:13:56;10.40;99.90
10530;DHT22;5313;48.834;9.228;2023-04-01T10:20:07;10.40;99.90
10530;DHT22;5313;48.834;9.228;2023-04-01T10:31:43;10.70;99.90
10530;DHT22;5313;48.834;9.228;2023-04-01T10:45:24;10.70;99.90
10530;DHT22;5313;48.834;9.228;2023-04-01T11:04:58;10.80;99.90
10530;DHT22;5313;48.834;9.228;2023-04-01T11:07:50;10.90;99.90
10530;DHT22;5313;48.834;9.228;2023-04-01T11:22:08;11.20;99.90
10530;DHT22;5313;48.834;9.228;2023-04-01T11:30:33;11.30;99.90
10530;DHT22;5313;48.834;9.228;2023-04-01T11:36:05;11.60;99.90
10530;DHT22;5313;48.834;9.228;2023-04-01T11:39:00;11.70;99.90
10530;DHT22;5313;48.834;9.228;2023-04-01T11:49:33;12.20;99.90
10530;DHT22;5313;48.834;9.228;2023-04-01T12:05:39;12.10;99.90
10530;DHT22;5313;48.834;9.228;2023-04-01T12:08:24;11.80;99.90
10530;DHT22;5313;48.834;9.228;2023-04-01T12:11:00;11.50;99.90
10530;DHT22;5313;48.834;9.228;2023-04-01T12:19:51;11.30;99.90
10530;DHT22;5313;48.834;9.228;2023-04-01T12:22:23;11.40;99.90
10530;DHT22;5313;48.834;9.228;2023-04-01T12:27:41;11.40;99.90
10530;DHT22;5313;48.834;9.228;2023-04-01T12:38:24;11.30;99.90
10530;DHT22;5313;48.834;9.228;2023-04-01T12:46:41;11.60;99.90
10530;DHT22;5313;48.834;9.228;2023-04-01T12:49:31;11.80;99.90
10530;DHT22;5313;48.834;9.228;2023-04-01T12:52:44;11.80;99.90
10530;DHT22;5313;48.834;9.228;2023-04-01T12:55:18;12.00;99.90
10530;DHT22;5313;48.834;9.228;2023-04-01T13:09:11;12.00;99.90
10530;DHT22;5313;48.834;9.228;2023-04-01T13:17:34;11.90;99.90
10530;DHT22;5313;48.834;9.228;2023-04-01T13:20:16;11.90;99.90
10530;DHT22;5313;48.834;9.228;2023-04-01T13:23:10;11.90;99.90
10530;DHT22;5313;48.834;9.228;2023-04-01T13:25:58;11.90;99.90
10530;DHT22;5313;48.834;9.228;2023-04-01T13:28:29;11.80;99.90
10530;DHT22;5313;48.834;9.228;2023-04-01T13:31:05;11.80;99.90
10530;DHT22;5313;48.834;9.228;2023-04-01T13:33:50;11.70;99.90
10530;DHT22;5313;48.834;9.228;2023-04-01T13:42:43;12.00;99.90
10530;DHT22;5313;48.834;9.228;2023-04-01T13:45:22;11.90;99.90
10530;DHT22;5313;48.834;9.228;2023-04-01T13:53:27;12.00;99.90
10530;DHT22;5313;48.834;9.228;2023-04-01T13:56:12;11.90;99.90
10530;DHT22;5313;48.834;9.228;2023-04-01T13:58:55;11.90;99.90
10530;DHT22;5313;48.834;9.228;2023-04-01T14:07:11;11.80;99.90
10530;DHT22;5313;48.834;9.228;2023-04-01T14:09:44;11.50;99.90
10530;DHT22;5313;48.834;9.228;2023-04-01T14:15:28;11.50;99.90
10530;DHT22;5313;48.834;9.228;2023-04-01T14:21:12;11.70;99.90
10530;DHT22;5313;48.834;9.228;2023-04-01T14:31:41;11.60;99.90
10530;DHT22;5313;48.834;9.228;2023-04-01T14:34:25;11.50;99.90
10530;DHT22;5313;48.834;9.228;2023-04-01T14:37:01;11.40;99.90
10530;DHT22;5313;48.834;9.228;2023-04-01T14:48:36;10.60;99.90
10530;DHT22;5313;48.834;9.228;2023-04-01T14:51:28;10.70;99.90
10530;DHT22;5313;48.834;9.228;2023-04-01T14:54:21;10.70;99.90
10530;DHT22;5313;48.834;9.228;2023-04-01T15:00:16;10.90;99.90
10530;DHT22;5313;48.834;9.228;2023-04-01T15:05:47;11.00;99.90
10530;DHT22;5313;48.834;9.228;2023-04-01T15:09:01;11.10;99.90
10530;DHT22;5313;48.834;9.228;2023-04-01T15:13:46;11.60;99.90
10530;DHT22;5313;48.834;9.228;2023-04-01T15:16:25;11.70;99.90
10530;DHT22;5313;48.834;9.228;2023-04-01T15:22:13;11.50;99.90
10530;DHT22;5313;48.834;9.228;2023-04-01T15:37:02;11.50;99.90
10530;DHT22;5313;48.834;9.228;2023-04-01T15:40:02;11.60;99.90
10530;DHT22;5313;48.834;9.228;2023-04-01T15:43:11;11.60;99.90
10530;DHT22;5313;48.834;9.228;2023-04-01T15:45:58;11.50;99.90
10530;DHT22;5313;48.834;9.228;2023-04-01T15:48:52;11.50;99.90
10530;DHT22;5313;48.834;9.228;2023-04-01T15:51:48;11.40;99.90
10530;DHT22;5313;48.834;9.228;2023-04-01T16:06:18;11.40;99.90
10530;DHT22;5313;48.834;9.228;2023-04-01T16:11:43;11.40;99.90
10530;DHT22;5313;48.834;9.228;2023-04-01T16:14:17;11.40;99.90
10530;DHT22;5313;48.834;9.228;2023-04-01T16:22:59;11.30;99.90
10530;DHT22;5313;48.834;9.228;2023-04-01T16:25:35;11.30;99.90
10530;DHT22;5313;48.834;9.228;2023-04-01T16:28:27;11.30;99.90
10530;DHT22;5313;48.834;9.228;2023-04-01T16:31:04;11.20;99.90
10530;DHT22;5313;48.834;9.228;2023-04-01T16:33:52;11.20;99.90
10530;DHT22;5313;48.834;9.228;2023-04-01T16:44:54;11.10;99.90
10530;DHT22;5313;48.834;9.228;2023-04-01T16:47:22;11.10;99.90
10530;DHT22;5313;48.834;9.228;2023-04-01T16:50:39;11.10;99.90
10530;DHT22;5313;48.834;9.228;2023-04-01T16:53:02;11.00;99.90
10530;DHT22;5313;48.834;9.228;2023-04-01T16:55:51;10.90;99.90
10530;DHT22;5313;48.834;9.228;2023-04-01T16:58:26;10.90;99.90
10530;DHT22;5313;48.834;9.228;2023-04-01T17:01:20;10.90;99.90
10530;DHT22;5313;48.834;9.228;2023-04-01T17:03:53;11.00;99.90
10530;DHT22;5313;48.834;9.228;2023-04-01T17:09:16;11.00;99.90
10530;DHT22;5313;48.834;9.228;2023-04-01T17:14:45;11.00;99.90
10530;DHT22;5313;48.834;9.228;2023-04-01T17:22:59;11.00;99.90
10530;DHT22;5313;48.834;9.228;2023-04-01T17:25:46;11.00;99.90
10530;DHT22;5313;48.834;9.228;2023-04-01T17:28:20;10.90;99.90
10530;DHT22;5313;48.834;9.228;2023-04-01T17:31:18;11.00;99.90
10530;DHT22;5313;48.834;9.228;2023-04-01T17:36:36;11.00;99.90
10530;DHT22;5313;48.834;9.228;2023-04-01T17:42:23;11.00;99.90
10530;DHT22;5313;48.834;9.228;2023-04-01T17:45:08;11.00;99.90
10530;DHT22;5313;48.834;9.228;2023-04-01T17:47:44;11.00;99.90
10530;DHT22;5313;48.834;9.228;2023-04-01T17:50:28;11.00;99.90
10530;DHT22;5313;48.834;9.228;2023-04-01T17:58:20;11.10;99.90
10530;DHT22;5313;48.834;9.228;2023-04-01T18:00:59;11.10;99.90
10530;DHT22;5313;48.834;9.228;2023-04-01T18:04:23;11.10;99.90
10530;DHT22;5313;48.834;9.228;2023-04-01T18:12:02;10.70;99.90
10530;DHT22;5313;48.834;9.228;2023-04-01T18:22:56;10.20;99.90
10530;DHT22;5313;48.834;9.228;2023-04-01T18:25:29;10.20;99.90
10530;DHT22;5313;48.834;9.228;2023-04-01T18:28:17;10.20;99.90
10530;DHT22;5313;48.834;9.228;2023-04-01T18:31:15;10.20;99.90
10530;DHT22;5313;48.834;9.228;2023-04-01T18:39:17;10.20;99.90
10530;DHT22;5313;48.834;9.228;2023-04-01T18:45:09;10.10;99.90
10530;DHT22;5313;48.834;9.228;2023-04-01T18:50:37;10.10;99.90
10530;DHT22;5313;48.834;9.228;2023-04-01T18:53:25;10.00;99.90
10530;DHT22;5313;48.834;9.228;2023-04-01T18:56:09;10.00;99.90
10530;DHT22;5313;48.834;9.228;2023-04-01T18:58:46;10.00;99.90
10530;DHT22;5313;48.834;9.228;2023-04-01T19:04:19;9.90;99.90
10530;DHT22;5313;48.834;9.228;2023-04-01T19:06:57;9.90;99.90
10530;DHT22;5313;48.834;9.228;2023-04-01T19:09:43;9.90;99.90
10530;DHT22;5313;48.834;9.228;2023-04-01T19:15:02;9.80;99.90
10530;DHT22;5313;48.834;9.228;2023-04-01T19:20:34;9.60;99.90
10530;DHT22;5313;48.834;9.228;2023-04-01T19:25:55;9.40;99.90
10530;DHT22;5313;48.834;9.228;2023-04-01T19:28:38;9.40;99.90
10530;DHT22;5313;48.834;9.228;2023-04-01T19:36:52;9.30;99.90
10530;DHT22;5313;48.834;9.228;2023-04-01T19:48:19;9.20;99.90
10530;DHT22;5313;48.834;9.228;2023-04-01T19:50:57;9.20;99.90
10530;DHT22;5313;48.834;9.228;2023-04-01T19:53:43;9.20;99.90
10530;DHT22;5313;48.834;9.228;2023-04-01T19:56:17;9.10;99.90
10530;DHT22;5313;48.834;9.228;2023-04-01T19:59:24;9.10;99.90
10530;DHT22;5313;48.834;9.228;2023-04-01T20:02:26;9.10;99.90
10530;DHT22;5313;48.834;9.228;2023-04-01T20:04:55;9.00;99.90
10530;DHT22;5313;48.834;9.228;2023-04-01T20:07:32;9.00;99.90
10530;DHT22;5313;48.834;9.228;2023-04-01T20:10:14;9.10;99.90
10530;DHT22;5313;48.834;9.228;2023-04-01T20:12:53;9.10;99.90
10530;DHT22;5313;48.834;9.228;2023-04-01T20:15:39;9.20;99.90
10530;DHT22;5313;48.834;9.228;2023-04-01T20:18:18;9.20;99.90
10530;DHT22;5313;48.834;9.228;2023-04-01T20:21:20;9.20;99.90
10530;DHT22;5313;48.834;9.228;2023-04-01T20:24:07;9.20;99.90
10530;DHT22;5313;48.834;9.228;2023-04-01T20:26:54;9.30;99.90
10530;DHT22;5313;48.834;9.228;2023-04-01T20:29:35;9.30;99.90
10530;DHT22;5313;48.834;9.228;2023-04-01T20:37:49;9.40;99.90
10530;DHT22;5313;48.834;9.228;2023-04-01T20:40:27;9.40;99.90
10530;DHT22;5313;48.834;9.228;2023-04-01T20:46:11;9.40;99.90
10530;DHT22;5313;48.834;9.228;2023-04-01T20:51:23;9.40;99.90
10530;DHT22;5313;48.834;9.228;2023-04-01T20:56:48;9.40;99.90
10530;DHT22;5313;48.834;9.228;2023-04-01T21:10:48;9.50;99.90
10530;DHT22;5313;48.834;9.228;2023-04-01T21:13:31;9.40;99.90
10530;DHT22;5313;48.834;9.228;2023-04-01T21:16:19;9.50;99.90
10530;DHT22;5313;48.834;9.228;2023-04-01T21:24:53;9.50;99.90
10530;DHT22;5313;48.834;9.228;2023-04-01T21:27:42;9.60;99.90
10530;DHT22;5313;48.834;9.228;2023-04-01T21:50:02;9.50;99.90
10530;DHT22;5313;48.834;9.228;2023-04-01T22:04:31;9.40;99.90
10530;DHT22;5313;48.834;9.228;2023-04-01T22:07:06;9.40;99.90
10530;DHT22;5313;48.834;9.228;2023-04-01T22:09:41;9.40;99.90
10530;DHT22;5313;48.834;9.228;2023-04-01T22:12:35;9.40;99.90
10530;DHT22;5313;48.834;9.228;2023-04-01T22:15:15;9.40;99.90
10530;DHT22;5313;48.834;9.228;2023-04-01T22:17:54;9.40;99.90
10530;DHT22;5313;48.834;9.228;2023-04-01T22:23:43;9.40;99.90
10530;DHT22;5313;48.834;9.228;2023-04-01T22:26:29;9.40;99.90
10530;DHT22;5313;48.834;9.228;2023-04-01T22:29:13;9.30;99.90
10530;DHT22;5313;48.834;9.228;2023-04-01T22:31:49;9.30;99.90
10530;DHT22;5313;48.834;9.228;2023-04-01T22:34:26;9.30;99.90
10530;DHT22;5313;48.834;9.228;2023-04-01T22:42:44;9.40;99.90
10530;DHT22;5313;48.834;9.228;2023-04-01T22:56:18;9.30;99.90
10530;DHT22;5313;48.834;9.228;2023-04-01T22:58:50;9.30;99.90
10530;DHT22;5313;48.834;9.228;2023-04-01T23:01:25;9.30;99.90
10530;DHT22;5313;48.834;9.228;2023-04-01T23:03:54;9.30;99.90
10530;DHT22;5313;48.834;9.228;2023-04-01T23:06:26;9.20;99.90
10530;DHT22;5313;48.834;9.228;2023-04-01T23:11:30;9.30;99.90
10530;DHT22;5313;48.834;9.228;2023-04-01T23:16:40;9.30;99.90
10530;DHT22;5313;48.834;9.228;2023-04-01T23:22:17;9.20;99.90
10530;DHT22;5313;48.834;9.228;2023-04-01T23:25:22;9.30;99.90
10530;DHT22;5313;48.834;9.228;2023-04-01T23:33:28;9.20;99.90
10530;DHT22;5313;48.834;9.228;2023-04-01T23:36:00;9.20;99.90
10530;DHT22;5313;48.834;9.228;2023-04-01T23:38:36;9.20;99.90
10530;DHT22;5313;48.834;9.228;2023-04-01T23:41:04;9.30;99.90
10530;DHT22;5313;48.834;9.228;2023-04-01T23:43:38;9.20;99.90
10530;DHT22;5313;48.834;9.228;2023-04-01T23:46:06;9.20;99.90
10530;DHT22;5313;48.834;9.228;2023-04-01T23:48:37;9.20;99.90
10530;DHT22;5313;48.834;9.228;2023-04-01T23:51:04;9.20;99.90
10530;DHT22;5313;48.834;9.228;2023-04-01T23:53:43;9.20;99.90
10530;DHT22;5313;48.834;9.228;2023-04-01T23:56:10;9.20;99.90
10530;DHT22;5313;48.834;9.228;2023-04-01T23:58:50;9.20;99.90
